Time;durP1;ratioP1;P1;durP2;ratioP2;P2;SDS_P1;SDS_P2;PMS_P1;PMS_P2;Temp;Humidity;BMP_temperature;BMP_pressure;BME280_temperature;BME280_humidity;BME280_pressure;Samples;Min_cycle;Max_cycle;Signal;HPM_P1;HPM_P2
2023/10/07 00:00:31;;;;;;;6.10;5.57;;;17.20;99.90;;;;;;5060630;28;20765;-72
2023/10/07 00:03:00;;;;;;;6.40;5.80;;;17.30;99.90;;;;;;5060902;28;20202;-72
2023/10/07 00:05:31;;;;;;;7.28;6.03;;;17.20;99.90;;;;;;5061912;28;20309;-73
2023/10/07 00:08:00;;;;;;;6.15;5.65;;;17.10;99.90;;;;;;5059449;28;20761;-72
2023/10/07 00:10:29;;;;;;;6.47;5.88;;;17.10;99.90;;;;;;5062842;28;20308;-72
2023/10/07 00:12:57;;;;;;;6.53;5.93;;;17.10;99.90;;;;;;5061744;28;20209;-72
2023/10/07 00:15:28;;;;;;;6.70;6.10;;;17.00;99.90;;;;;;5060361;28;20368;-73
2023/10/07 00:17:57;;;;;;;6.72;6.13;;;17.00;99.90;;;;;;5061929;28;20288;-72
2023/10/07 00:20:27;;;;;;;6.53;5.93;;;16.90;99.90;;;;;;5061343;28;20225;-72
2023/10/07 00:23:00;;;;;;;6.00;5.50;;;16.90;99.90;;;;;;5060563;28;20259;-73
2023/10/07 00:25:30;;;;;;;8.25;6.55;;;16.90;99.90;;;;;;5061424;28;20226;-73
2023/10/07 00:27:58;;;;;;;6.90;5.90;;;16.90;99.90;;;;;;5058853;28;20195;-73
2023/10/07 00:30:27;;;;;;;7.53;6.28;;;16.90;99.90;;;;;;5063550;28;20292;-72
2023/10/07 00:32:55;;;;;;;6.00;5.45;;;16.80;99.90;;;;;;5059052;28;20206;-73
2023/10/07 00:35:25;;;;;;;7.25;6.55;;;16.70;99.90;;;;;;5062803;28;20206;-72
2023/10/07 00:37:58;;;;;;;6.60;6.10;;;16.70;99.90;;;;;;5061919;28;21097;-71
2023/10/07 00:40:39;;;;;;;6.15;5.60;;;16.70;99.90;;;;;;5058909;28;20996;-72
2023/10/07 00:43:09;;;;;;;6.57;5.97;;;16.70;99.90;;;;;;5057946;28;20660;-72
2023/10/07 00:45:37;;;;;;;6.97;6.38;;;16.70;99.90;;;;;;5059817;28;20209;-72
2023/10/07 00:48:10;;;;;;;6.65;5.88;;;16.60;99.90;;;;;;5060104;28;20226;-74
2023/10/07 00:50:40;;;;;;;6.95;6.25;;;16.60;99.90;;;;;;5060332;28;20201;-73
2023/10/07 00:53:09;;;;;;;6.65;6.05;;;16.60;99.90;;;;;;5061414;28;20228;-72
2023/10/07 00:55:37;;;;;;;6.32;5.72;;;16.60;99.90;;;;;;5060350;28;20243;-73
2023/10/07 00:58:08;;;;;;;7.20;6.10;;;16.60;99.90;;;;;;5061109;28;20194;-72
2023/10/07 01:00:43;;;;;;;6.63;5.95;;;16.70;99.90;;;;;;5059192;28;20301;-73
2023/10/07 01:03:23;;;;;;;6.82;6.13;;;16.70;99.90;;;;;;5059648;28;20198;-72
2023/10/07 01:06:10;;;;;;;7.00;6.30;;;16.70;99.90;;;;;;5056712;28;20880;-74
2023/10/07 01:08:41;;;;;;;7.18;6.47;;;16.70;99.90;;;;;;5060964;28;20210;-72
2023/10/07 01:11:19;;;;;;;6.70;6.07;;;16.70;99.90;;;;;;5059725;28;20198;-73
2023/10/07 01:13:50;;;;;;;6.65;6.05;;;16.70;99.90;;;;;;5059944;28;20206;-73
2023/10/07 01:16:31;;;;;;;6.53;5.93;;;16.70;99.90;;;;;;5060356;28;20324;-73
2023/10/07 01:19:06;;;;;;;6.35;5.85;;;16.60;99.90;;;;;;5061684;28;20356;-72
2023/10/07 01:21:39;;;;;;;6.47;5.97;;;16.60;99.90;;;;;;5059823;28;20194;-73
2023/10/07 01:24:13;;;;;;;6.50;5.90;;;16.60;99.90;;;;;;5060738;28;20222;-73
2023/10/07 01:26:44;;;;;;;5.97;5.47;;;16.60;99.90;;;;;;5062171;28;20224;-73
2023/10/07 01:29:15;;;;;;;6.07;5.57;;;16.50;99.90;;;;;;5058271;28;20700;-73
2023/10/07 01:31:59;;;;;;;6.60;6.00;;;16.50;99.90;;;;;;5061744;28;20210;-72
2023/10/07 01:34:29;;;;;;;6.20;5.70;;;16.50;99.90;;;;;;5062678;28;20279;-74
2023/10/07 01:37:00;;;;;;;6.28;5.68;;;16.50;99.90;;;;;;5059865;28;20255;-72
2023/10/07 01:39:31;;;;;;;7.63;6.90;;;16.40;99.90;;;;;;5060750;28;20246;-72
2023/10/07 01:42:01;;;;;;;6.50;5.90;;;16.40;99.90;;;;;;5059438;28;20673;-73
2023/10/07 01:44:31;;;;;;;6.97;6.25;;;16.40;99.90;;;;;;5063867;28;20225;-72
2023/10/07 01:46:59;;;;;;;6.95;6.35;;;16.30;99.90;;;;;;5062357;28;20696;-73
2023/10/07 01:49:30;;;;;;;6.75;6.05;;;16.30;99.90;;;;;;5083069;28;20300;-73
2023/10/07 01:51:57;;;;;;;6.68;6.07;;;16.30;99.90;;;;;;5064242;28;20252;-73
2023/10/07 01:54:28;;;;;;;6.47;5.78;;;16.30;99.90;;;;;;5061816;28;20198;-72
2023/10/07 01:56:57;;;;;;;6.43;5.85;;;16.20;99.90;;;;;;5058521;28;20202;-73
2023/10/07 01:59:24;;;;;;;6.88;6.28;;;16.20;99.90;;;;;;5060543;28;20355;-73
2023/10/07 02:01:58;;;;;;;6.50;5.90;;;16.20;99.90;;;;;;5058616;28;20205;-72
2023/10/07 02:04:27;;;;;;;6.50;5.90;;;16.10;99.90;;;;;;5059781;28;20215;-73
2023/10/07 02:06:54;;;;;;;6.15;5.65;;;16.20;99.90;;;;;;5059745;28;20295;-72
2023/10/07 02:09:25;;;;;;;6.53;5.93;;;16.10;99.90;;;;;;5075406;28;20812;-74
2023/10/07 02:11:53;;;;;;;6.90;6.30;;;16.10;99.90;;;;;;5072112;28;20209;-74
2023/10/07 02:14:24;;;;;;;6.05;5.55;;;16.10;99.90;;;;;;5075905;28;20600;-73
2023/10/07 02:16:51;;;;;;;7.53;6.30;;;16.10;99.90;;;;;;5060531;28;20209;-72
2023/10/07 02:19:27;;;;;;;6.65;6.05;;;16.10;99.90;;;;;;5060397;28;20221;-72
2023/10/07 02:21:59;;;;;;;7.32;6.32;;;16.10;99.90;;;;;;5058398;28;20947;-72
2023/10/07 02:24:29;;;;;;;6.65;6.05;;;16.10;99.90;;;;;;5060437;28;20907;-72
2023/10/07 02:27:00;;;;;;;6.68;6.07;;;16.10;99.90;;;;;;5060622;28;20210;-72
2023/10/07 02:29:29;;;;;;;6.28;5.68;;;16.10;99.90;;;;;;5059782;28;20690;-73
2023/10/07 02:32:06;;;;;;;6.72;6.13;;;16.00;99.90;;;;;;5057995;28;20199;-72
2023/10/07 02:34:34;;;;;;;6.57;5.97;;;16.00;99.90;;;;;;5064277;28;20198;-72
2023/10/07 02:37:13;;;;;;;7.03;6.32;;;16.00;99.90;;;;;;5061699;28;20329;-72
2023/10/07 02:39:46;;;;;;;6.30;5.70;;;16.00;99.90;;;;;;5059896;28;20304;-73
2023/10/07 02:42:21;;;;;;;6.63;6.05;;;16.00;99.90;;;;;;5058359;28;20286;-73
2023/10/07 02:45:00;;;;;;;6.80;6.20;;;16.00;99.90;;;;;;5060582;28;20282;-72
2023/10/07 02:47:30;;;;;;;7.30;6.40;;;16.00;99.90;;;;;;5061414;28;20208;-73
2023/10/07 02:50:00;;;;;;;7.20;6.43;;;16.00;99.90;;;;;;5062050;28;20218;-72
2023/10/07 02:52:35;;;;;;;6.88;6.25;;;16.00;99.90;;;;;;5061880;28;20202;-73
2023/10/07 02:57:55;;;;;;;6.75;6.15;;;15.90;99.90;;;;;;5059210;28;20194;-72
2023/10/07 03:00:35;;;;;;;6.68;6.07;;;15.80;99.90;;;;;;5064395;28;20226;-73
2023/10/07 03:03:19;;;;;;;6.43;5.88;;;15.80;99.90;;;;;;5065379;28;20297;-73
2023/10/07 03:05:58;;;;;;;7.30;6.05;;;15.70;99.90;;;;;;5063319;28;20206;-72
2023/10/07 03:08:40;;;;;;;6.63;6.03;;;15.70;99.90;;;;;;5063060;28;20271;-73
2023/10/07 03:11:11;;;;;;;6.28;5.78;;;15.70;99.90;;;;;;5063124;28;20381;-73
2023/10/07 03:13:45;;;;;;;6.20;5.60;;;15.70;99.90;;;;;;5064224;28;20293;-72
2023/10/07 03:16:29;;;;;;;5.78;5.28;;;15.70;99.90;;;;;;5063941;28;20219;-73
2023/10/07 03:19:06;;;;;;;6.13;5.53;;;15.70;99.90;;;;;;5070759;28;20214;-74
2023/10/07 03:21:55;;;;;;;6.78;6.18;;;15.70;99.90;;;;;;5065619;28;20589;-72
2023/10/07 03:24:29;;;;;;;6.28;5.68;;;15.70;99.90;;;;;;5062863;28;20208;-73
2023/10/07 03:27:05;;;;;;;6.60;5.90;;;15.60;99.90;;;;;;5063499;28;20285;-73
2023/10/07 03:29:36;;;;;;;6.30;5.72;;;15.60;99.90;;;;;;5064945;28;20226;-72
2023/10/07 03:32:12;;;;;;;6.55;5.75;;;15.60;99.90;;;;;;5063219;28;20208;-72
2023/10/07 03:34:40;;;;;;;6.20;5.60;;;15.70;99.90;;;;;;5062934;28;20201;-72
2023/10/07 03:37:14;;;;;;;5.70;5.20;;;15.60;99.90;;;;;;5063266;28;20281;-74
2023/10/07 03:39:56;;;;;;;6.18;5.57;;;15.60;99.90;;;;;;5060672;28;20704;-73
2023/10/07 03:42:24;;;;;;;7.72;6.20;;;15.50;99.90;;;;;;5063712;28;20677;-71
2023/10/07 03:44:51;;;;;;;6.93;6.32;;;15.60;99.90;;;;;;5061819;28;20304;-73
2023/10/07 03:47:19;;;;;;;6.70;6.05;;;15.70;99.90;;;;;;5065022;28;20249;-72
2023/10/07 03:49:52;;;;;;;6.55;5.95;;;15.70;99.90;;;;;;5072635;28;20217;-74
2023/10/07 03:52:21;;;;;;;6.40;5.80;;;15.70;99.90;;;;;;5077489;28;20267;-71
2023/10/07 03:54:49;;;;;;;6.95;6.25;;;15.80;99.90;;;;;;5066553;28;20194;-72
2023/10/07 03:57:18;;;;;;;6.95;6.35;;;15.70;99.90;;;;;;5064399;28;20202;-73
2023/10/07 03:59:46;;;;;;;6.50;5.90;;;15.60;99.90;;;;;;5061961;28;20262;-73
2023/10/07 04:02:29;;;;;;;6.10;5.50;;;15.50;99.90;;;;;;5061864;28;20285;-73
2023/10/07 04:05:10;;;;;;;6.78;5.50;;;15.40;99.90;;;;;;5062966;28;20686;-74
2023/10/07 04:07:37;;;;;;;6.15;5.65;;;15.20;99.90;;;;;;5063160;28;20206;-73
2023/10/07 04:10:14;;;;;;;6.28;5.78;;;15.20;99.90;;;;;;5068007;28;20298;-72
2023/10/07 04:12:44;;;;;;;6.38;5.78;;;15.20;99.90;;;;;;5063824;28;21007;-73
2023/10/07 04:15:12;;;;;;;6.32;5.72;;;15.20;99.90;;;;;;5062663;28;20287;-71
2023/10/07 04:17:39;;;;;;;6.55;5.80;;;15.30;99.90;;;;;;5071603;28;20285;-73
2023/10/07 04:20:18;;;;;;;6.63;5.95;;;15.40;99.90;;;;;;5068224;28;20246;-72
2023/10/07 04:22:57;;;;;;;6.70;6.00;;;15.40;99.90;;;;;;5061251;28;20206;-73
2023/10/07 04:25:25;;;;;;;6.10;5.50;;;15.40;99.90;;;;;;5060240;28;20224;-73
2023/10/07 04:27:53;;;;;;;6.65;5.68;;;15.30;99.90;;;;;;5062495;28;20202;-74
2023/10/07 04:30:25;;;;;;;6.13;5.60;;;15.20;99.90;;;;;;5058921;28;20218;-72
2023/10/07 04:32:53;;;;;;;6.28;5.68;;;15.20;99.90;;;;;;5061149;28;20202;-75
2023/10/07 04:35:26;;;;;;;6.35;5.75;;;15.20;99.90;;;;;;5058664;28;20195;-72
2023/10/07 04:37:59;;;;;;;6.15;5.60;;;15.10;99.90;;;;;;5063732;28;20205;-73
2023/10/07 04:43:36;;;;;;;6.95;6.15;;;15.10;99.90;;;;;;5062758;28;20597;-72
2023/10/07 04:46:07;;;;;;;5.97;5.40;;;15.10;99.90;;;;;;5060114;28;20202;-73
2023/10/07 04:48:54;;;;;;;5.97;5.38;;;15.10;99.90;;;;;;5061599;28;20704;-73
2023/10/07 04:51:46;;;;;;;6.47;5.88;;;15.00;99.90;;;;;;5060363;28;20762;-72
2023/10/07 04:54:20;;;;;;;6.85;5.60;;;15.00;99.90;;;;;;5063109;28;20203;-72
2023/10/07 04:56:53;;;;;;;6.55;5.93;;;15.00;99.90;;;;;;5062972;28;20281;-73
2023/10/07 04:59:21;;;;;;;5.93;5.32;;;14.90;99.90;;;;;;5056412;28;20296;-71
2023/10/07 05:01:56;;;;;;;6.28;5.75;;;14.90;99.90;;;;;;5060985;28;20197;-72
2023/10/07 05:04:24;;;;;;;6.40;5.75;;;14.90;99.90;;;;;;5062338;28;20230;-72
2023/10/07 05:06:53;;;;;;;5.78;5.28;;;14.90;99.90;;;;;;5058810;28;20206;-72
2023/10/07 05:09:21;;;;;;;5.65;5.05;;;14.90;99.90;;;;;;5060163;28;20775;-72
2023/10/07 05:11:48;;;;;;;5.97;5.47;;;14.90;99.90;;;;;;5060847;28;20204;-72
2023/10/07 05:14:17;;;;;;;6.07;5.47;;;14.90;99.90;;;;;;5061823;28;20206;-72
2023/10/07 05:16:46;;;;;;;6.13;5.30;;;14.90;99.90;;;;;;5063237;28;20434;-72
2023/10/07 05:19:19;;;;;;;6.25;5.53;;;14.90;99.90;;;;;;5062987;28;20322;-74
2023/10/07 05:21:58;;;;;;;6.43;5.82;;;14.90;99.90;;;;;;5060128;28;20194;-72
2023/10/07 05:24:30;;;;;;;5.47;4.97;;;14.90;99.90;;;;;;5060400;28;20198;-74
2023/10/07 05:26:59;;;;;;;5.88;5.38;;;14.80;99.90;;;;;;5064514;28;20210;-72
2023/10/07 05:29:26;;;;;;;6.05;5.45;;;14.80;99.90;;;;;;5062541;28;20263;-73
2023/10/07 05:31:55;;;;;;;6.05;5.55;;;14.80;99.90;;;;;;5076001;28;20240;-73
2023/10/07 05:34:22;;;;;;;6.18;5.57;;;14.80;99.90;;;;;;5079461;28;20229;-73
2023/10/07 05:36:49;;;;;;;5.80;5.30;;;14.80;99.90;;;;;;5077463;28;20220;-73
2023/10/07 05:39:17;;;;;;;5.97;5.43;;;14.90;99.90;;;;;;5064182;28;20230;-72
2023/10/07 05:41:47;;;;;;;7.35;6.15;;;14.90;99.90;;;;;;5061550;28;20249;-73
2023/10/07 05:44:15;;;;;;;6.72;6.13;;;14.90;99.90;;;;;;5059128;28;20190;-73
2023/10/07 05:46:43;;;;;;;6.13;5.50;;;14.90;99.90;;;;;;5061337;28;20259;-72
2023/10/07 05:49:10;;;;;;;5.60;5.10;;;14.90;99.90;;;;;;5057114;28;20215;-75
2023/10/07 05:51:37;;;;;;;6.18;5.68;;;14.90;99.90;;;;;;5077882;28;20320;-73
2023/10/07 05:54:05;;;;;;;5.45;4.95;;;15.00;99.90;;;;;;5070025;28;20198;-72
2023/10/07 05:56:32;;;;;;;6.20;5.57;;;14.90;99.90;;;;;;5062214;28;20214;-72
2023/10/07 05:59:01;;;;;;;5.55;5.05;;;14.90;99.90;;;;;;5061353;28;20815;-72
2023/10/07 06:01:28;;;;;;;5.60;5.10;;;15.00;99.90;;;;;;5059763;28;20283;-72
2023/10/07 06:03:56;;;;;;;7.50;6.03;;;15.00;99.90;;;;;;5062085;28;20205;-73
2023/10/07 06:06:22;;;;;;;5.45;4.95;;;15.00;99.90;;;;;;5060643;28;20229;-72
2023/10/07 06:08:52;;;;;;;5.90;5.40;;;15.10;99.90;;;;;;5058399;28;20263;-73
2023/10/07 06:11:23;;;;;;;6.40;5.80;;;15.10;99.90;;;;;;5059776;28;20297;-72
2023/10/07 06:13:51;;;;;;;6.30;5.70;;;15.20;99.90;;;;;;5060561;28;20198;-72
2023/10/07 06:16:20;;;;;;;5.90;5.38;;;15.20;99.90;;;;;;5059845;28;20650;-73
2023/10/07 06:18:49;;;;;;;5.47;4.97;;;15.30;99.90;;;;;;5060387;28;20226;-72
2023/10/07 06:21:19;;;;;;;6.07;5.57;;;15.30;99.90;;;;;;5057641;28;20293;-72
2023/10/07 06:23:48;;;;;;;5.80;5.20;;;15.30;99.90;;;;;;5063282;28;20202;-71
2023/10/07 06:26:16;;;;;;;5.60;5.10;;;15.30;99.90;;;;;;5061759;28;20237;-72
2023/10/07 06:28:48;;;;;;;6.15;5.55;;;15.30;99.90;;;;;;5060115;28;20226;-74
2023/10/07 06:31:22;;;;;;;5.93;5.43;;;15.40;99.90;;;;;;5058375;28;20194;-73
2023/10/07 06:34:00;;;;;;;7.72;5.78;;;15.80;99.90;;;;;;5064760;28;20261;-72
2023/10/07 06:36:27;;;;;;;6.28;5.70;;;16.20;99.90;;;;;;5066173;28;20625;-72
2023/10/07 06:38:58;;;;;;;7.05;5.93;;;16.40;99.90;;;;;;5065275;28;20222;-73
2023/10/07 06:41:27;;;;;;;6.65;6.03;;;16.80;99.90;;;;;;5062872;28;20808;-73
2023/10/07 06:43:59;;;;;;;6.30;5.70;;;17.20;99.90;;;;;;5061982;28;20202;-72
2023/10/07 06:46:29;;;;;;;6.25;5.65;;;17.70;99.90;;;;;;5060553;28;20831;-73
2023/10/07 06:48:59;;;;;;;6.97;6.25;;;18.10;99.90;;;;;;5066329;28;20734;-73
2023/10/07 06:51:29;;;;;;;6.97;6.20;;;18.50;99.90;;;;;;5063883;28;20198;-73
2023/10/07 06:53:58;;;;;;;6.82;6.13;;;19.10;99.90;;;;;;5060603;28;20190;-73
2023/10/07 06:56:26;;;;;;;7.03;6.38;;;19.60;99.90;;;;;;5063788;28;20288;-72
2023/10/07 06:58:54;;;;;;;6.38;5.78;;;19.80;99.90;;;;;;5058952;28;20222;-70
2023/10/07 07:01:35;;;;;;;6.80;5.68;;;19.90;99.90;;;;;;5062231;28;20209;-72
2023/10/07 07:04:10;;;;;;;5.80;5.25;;;20.20;99.90;;;;;;5058600;28;20665;-72
2023/10/07 07:06:42;;;;;;;7.20;6.43;;;20.50;99.90;;;;;;5059529;28;20687;-71
2023/10/07 07:11:52;;;;;;;7.40;6.70;;;20.50;99.90;;;;;;5063042;28;20201;-73
2023/10/07 07:14:19;;;;;;;7.70;5.80;;;20.70;99.90;;;;;;5063859;28;20199;-73
2023/10/07 07:16:49;;;;;;;6.15;5.60;;;20.70;99.90;;;;;;5063955;28;20224;-71
2023/10/07 07:19:22;;;;;;;5.93;5.40;;;21.00;99.90;;;;;;5064714;28;20226;-72
2023/10/07 07:21:48;;;;;;;5.72;5.18;;;21.10;99.90;;;;;;5063977;28;20210;-73
2023/10/07 07:24:20;;;;;;;6.78;5.45;;;21.10;99.90;;;;;;5065064;28;20550;-72
2023/10/07 07:26:51;;;;;;;7.18;5.57;;;21.10;99.90;;;;;;5063926;28;20268;-72
2023/10/07 07:29:18;;;;;;;6.57;5.72;;;21.30;99.90;;;;;;5066413;28;20218;-71
2023/10/07 07:31:46;;;;;;;6.20;5.60;;;21.50;99.90;;;;;;5064462;28;20214;-74
2023/10/07 07:34:22;;;;;;;10.35;5.82;;;21.50;99.90;;;;;;5065114;28;20848;-72
2023/10/07 07:36:56;;;;;;;6.30;5.70;;;21.60;99.90;;;;;;5064193;28;20198;-72
2023/10/07 07:39:23;;;;;;;5.75;5.15;;;21.50;99.90;;;;;;5065566;28;20303;-72
2023/10/07 07:41:56;;;;;;;6.22;5.63;;;21.50;99.90;;;;;;5063013;28;20214;-74
2023/10/07 07:44:32;;;;;;;7.35;6.18;;;21.60;99.90;;;;;;5065088;28;20724;-73
2023/10/07 07:47:02;;;;;;;6.80;6.10;;;21.40;99.90;;;;;;5064676;28;20219;-72
2023/10/07 07:49:32;;;;;;;6.57;5.95;;;21.30;99.90;;;;;;5065656;28;20309;-73
2023/10/07 07:52:01;;;;;;;7.00;6.10;;;21.30;99.90;;;;;;5077476;28;20252;-76
2023/10/07 07:54:29;;;;;;;6.70;6.03;;;21.30;99.90;;;;;;5080238;28;20202;-73
2023/10/07 07:56:59;;;;;;;7.38;6.55;;;21.10;99.90;;;;;;5061434;28;20195;-72
2023/10/07 07:59:30;;;;;;;6.70;6.05;;;21.00;99.90;;;;;;5060688;28;20276;-74
2023/10/07 08:02:02;;;;;;;5.88;5.25;;;21.20;99.90;;;;;;5062180;28;20248;-74
2023/10/07 08:04:46;;;;;;;7.07;6.03;;;21.40;99.90;;;;;;5063061;28;20248;-74
2023/10/07 08:07:24;;;;;;;7.20;5.63;;;21.80;99.90;;;;;;5064754;28;20230;-70
2023/10/07 08:09:52;;;;;;;5.78;5.20;;;22.10;99.90;;;;;;5063030;28;20313;-72
2023/10/07 08:12:28;;;;;;;7.72;6.43;;;22.10;99.90;;;;;;5063222;28;20222;-73
2023/10/07 08:14:58;;;;;;;7.78;6.43;;;22.10;99.90;;;;;;5061031;28;20210;-72
2023/10/07 08:17:27;;;;;;;6.40;5.60;;;22.00;99.90;;;;;;5064823;28;20225;-72
2023/10/07 08:19:54;;;;;;;6.53;5.45;;;22.10;99.90;;;;;;5059780;28;20222;-72
2023/10/07 08:22:23;;;;;;;7.10;6.40;;;22.20;99.90;;;;;;5057196;28;20198;-72
2023/10/07 08:24:52;;;;;;;6.93;6.22;;;22.10;99.90;;;;;;5057153;28;20584;-72
2023/10/07 08:30:07;;;;;;;6.80;6.10;;;22.20;99.90;;;;;;5061526;28;20836;-71
2023/10/07 08:32:41;;;;;;;7.32;5.68;;;22.10;99.90;;;;;;5061336;28;20210;-72
2023/10/07 08:35:14;;;;;;;7.15;5.88;;;22.20;99.90;;;;;;5059110;28;20203;-71
2023/10/07 08:37:46;;;;;;;6.20;5.60;;;22.60;99.90;;;;;;5059313;28;20198;-72
2023/10/07 08:40:25;;;;;;;6.00;5.40;;;22.80;99.90;;;;;;5060467;28;20250;-71
2023/10/07 08:42:57;;;;;;;6.45;5.82;;;23.00;99.90;;;;;;5059650;28;20202;-71
2023/10/07 08:45:28;;;;;;;8.15;6.63;;;22.90;99.90;;;;;;5063685;28;20281;-72
2023/10/07 08:48:08;;;;;;;5.75;5.25;;;22.70;99.90;;;;;;5061465;28;20220;-72
2023/10/07 08:50:43;;;;;;;6.65;5.95;;;22.70;99.90;;;;;;5058532;28;20201;-72
2023/10/07 08:53:15;;;;;;;7.18;5.93;;;22.90;99.90;;;;;;5060391;28;20292;-72
2023/10/07 08:55:43;;;;;;;6.40;5.68;;;23.20;99.90;;;;;;5075895;28;20568;-73
2023/10/07 08:58:11;;;;;;;6.70;5.57;;;23.30;99.90;;;;;;5088111;28;20222;-73
2023/10/07 09:00:45;;;;;;;6.05;5.45;;;23.50;99.90;;;;;;5079613;28;20225;-73
2023/10/07 09:03:15;;;;;;;6.10;5.50;;;23.60;99.90;;;;;;5064712;28;20194;-72
2023/10/07 09:05:43;;;;;;;7.28;5.80;;;23.50;99.90;;;;;;5064233;28;20297;-71
2023/10/07 09:08:12;;;;;;;6.30;4.93;;;23.40;99.90;;;;;;5062865;28;20286;-73
2023/10/07 09:10:40;;;;;;;6.68;6.07;;;23.50;99.90;;;;;;5061530;28;20344;-73
2023/10/07 09:13:12;;;;;;;7.18;6.00;;;23.60;99.90;;;;;;5061427;28;20214;-72
2023/10/07 09:15:42;;;;;;;6.43;5.82;;;23.70;99.90;;;;;;5061889;28;20242;-72
2023/10/07 09:18:10;;;;;;;5.60;5.07;;;23.70;99.90;;;;;;5065258;28;20543;-71
2023/10/07 09:20:45;;;;;;;7.32;5.72;;;24.10;99.90;;;;;;5062898;28;20204;-71
2023/10/07 09:23:19;;;;;;;6.38;5.72;;;24.30;99.90;;;;;;5061256;28;20225;-72
2023/10/07 09:25:50;;;;;;;6.82;5.97;;;24.20;99.90;;;;;;5062380;28;20205;-72
2023/10/07 09:28:19;;;;;;;6.97;6.28;;;24.20;99.90;;;;;;5060144;28;20305;-72
2023/10/07 09:30:48;;;;;;;6.18;5.38;;;24.00;99.90;;;;;;5057790;28;20206;-72
2023/10/07 09:33:18;;;;;;;6.57;5.60;;;24.30;99.90;;;;;;5060924;28;20892;-72
2023/10/07 09:35:47;;;;;;;6.53;5.93;;;24.30;99.90;;;;;;5063111;28;20293;-71
2023/10/07 09:38:28;;;;;;;6.22;5.28;;;24.00;99.90;;;;;;5059840;28;20252;-72
2023/10/07 09:43:51;;;;;;;6.28;5.68;;;24.20;99.90;;;;;;5034541;28;20222;-71
2023/10/07 09:46:24;;;;;;;6.05;5.45;;;24.30;99.90;;;;;;5063699;28;20326;-72
2023/10/07 09:48:52;;;;;;;5.38;4.88;;;24.30;99.90;;;;;;5062759;28;20741;-72
2023/10/07 09:51:28;;;;;;;5.50;5.00;;;24.30;99.90;;;;;;5061921;28;20255;-71
2023/10/07 09:54:22;;;;;;;6.05;5.45;;;24.20;99.90;;;;;;5068035;28;20182;-74
2023/10/07 09:57:07;;;;;;;8.60;5.25;;;24.60;99.90;;;;;;5070962;28;20281;-72
2023/10/07 09:59:43;;;;;;;6.63;5.80;;;24.80;99.90;;;;;;5057018;28;20232;-71
2023/10/07 10:02:43;;;;;;;8.35;5.50;;;25.00;99.90;;;;;;5059452;28;20202;-71
2023/10/07 10:05:31;;;;;;;6.88;5.47;;;25.20;99.90;;;;;;5060368;28;20728;-71
2023/10/07 10:08:19;;;;;;;9.63;5.78;;;25.00;99.90;;;;;;5057876;28;20219;-71
2023/10/07 10:10:50;;;;;;;6.57;5.55;;;24.70;99.90;;;;;;5059795;28;20672;-71
2023/10/07 10:13:29;;;;;;;5.70;5.20;;;24.70;99.90;;;;;;5061821;28;20214;-72
2023/10/07 10:16:00;;;;;;;5.80;5.25;;;24.60;99.90;;;;;;5057873;28;20193;-72
2023/10/07 10:18:40;;;;;;;6.40;5.80;;;24.30;99.90;;;;;;5059949;28;20194;-72
2023/10/07 10:21:09;;;;;;;6.13;5.53;;;24.30;99.90;;;;;;5059094;28;20708;-71
2023/10/07 10:23:38;;;;;;;6.47;5.80;;;24.60;99.90;;;;;;5064709;28;20265;-71
2023/10/07 10:26:20;;;;;;;6.18;5.57;;;24.90;99.90;;;;;;5061163;28;20202;-73
2023/10/07 10:28:59;;;;;;;6.03;5.47;;;25.10;99.90;;;;;;5062391;28;20237;-72
2023/10/07 10:31:32;;;;;;;5.88;5.28;;;25.50;99.90;;;;;;5064331;28;20198;-72
2023/10/07 10:34:01;;;;;;;5.78;5.18;;;25.60;99.90;;;;;;5057059;28;20205;-72
2023/10/07 10:36:28;;;;;;;7.03;5.95;;;25.60;99.90;;;;;;5060378;28;20228;-73
2023/10/07 10:38:56;;;;;;;5.57;5.07;;;25.50;99.90;;;;;;5061676;28;20232;-72
2023/10/07 10:41:32;;;;;;;7.22;5.20;;;25.40;99.90;;;;;;5061482;28;20222;-72
2023/10/07 10:44:10;;;;;;;5.60;5.10;;;25.60;99.90;;;;;;5060695;28;20204;-72
2023/10/07 10:46:46;;;;;;;6.07;5.45;;;25.60;99.90;;;;;;5059907;28;20202;-70
2023/10/07 10:49:15;;;;;;;5.47;4.97;;;25.50;99.90;;;;;;5064005;28;20700;-72
2023/10/07 10:51:45;;;;;;;6.28;5.65;;;25.40;99.90;;;;;;5065053;28;20207;-71
2023/10/07 10:54:14;;;;;;;7.70;5.82;;;25.40;99.90;;;;;;5063862;28;20305;-71
2023/10/07 10:56:55;;;;;;;6.10;5.50;;;25.50;99.90;;;;;;5065331;28;20869;-72
2023/10/07 10:59:34;;;;;;;5.72;5.22;;;25.30;99.90;;;;;;5061461;28;20588;-71
2023/10/07 11:02:01;;;;;;;6.57;5.88;;;25.40;99.90;;;;;;5058134;28;20201;-70
2023/10/07 11:04:31;;;;;;;6.05;5.45;;;25.50;99.90;;;;;;5054915;28;20213;-69
2023/10/07 11:07:00;;;;;;;6.85;5.22;;;25.50;99.90;;;;;;5057364;28;20218;-70
2023/10/07 11:09:34;;;;;;;5.55;5.05;;;25.50;99.90;;;;;;5062100;28;20222;-70
2023/10/07 11:12:09;;;;;;;8.32;5.13;;;25.40;99.90;;;;;;5057711;28;20289;-69
2023/10/07 11:14:38;;;;;;;6.53;5.30;;;25.20;99.90;;;;;;5058316;28;20205;-70
2023/10/07 11:17:05;;;;;;;6.13;5.53;;;25.00;99.90;;;;;;5063562;28;20281;-69
2023/10/07 11:19:37;;;;;;;5.32;4.75;;;25.10;99.90;;;;;;5060714;28;20222;-70
2023/10/07 11:22:07;;;;;;;5.25;4.63;;;25.00;99.90;;;;;;5053683;28;20195;-71
2023/10/07 11:24:35;;;;;;;5.82;5.30;;;24.80;99.90;;;;;;5055884;28;20205;-71
2023/10/07 11:27:06;;;;;;;6.20;5.60;;;25.10;99.90;;;;;;5058271;28;20238;-70
2023/10/07 11:29:35;;;;;;;5.75;5.25;;;25.00;99.90;;;;;;5055197;28;20237;-70
2023/10/07 11:32:04;;;;;;;5.85;5.18;;;25.20;99.90;;;;;;5059655;28;20659;-70
2023/10/07 11:34:38;;;;;;;5.32;4.63;;;25.40;99.90;;;;;;5060345;28;20893;-69
2023/10/07 11:37:10;;;;;;;6.30;5.30;;;25.50;99.90;;;;;;5059225;28;20186;-70
2023/10/07 11:39:45;;;;;;;5.47;4.97;;;25.50;99.90;;;;;;5057124;28;20230;-70
2023/10/07 11:42:16;;;;;;;5.45;4.95;;;25.40;99.90;;;;;;5057855;28;20280;-71
2023/10/07 11:44:46;;;;;;;5.05;4.55;;;25.40;99.90;;;;;;5056168;28;20562;-70
2023/10/07 11:47:15;;;;;;;5.90;5.30;;;25.70;99.90;;;;;;5058926;28;20869;-71
2023/10/07 11:49:42;;;;;;;5.63;5.03;;;26.00;99.90;;;;;;5057748;28;20222;-71
2023/10/07 11:52:09;;;;;;;5.72;4.80;;;26.00;99.90;;;;;;5057562;28;20233;-72
2023/10/07 11:54:37;;;;;;;5.55;5.05;;;26.00;99.90;;;;;;5062327;28;20268;-72
2023/10/07 11:57:05;;;;;;;5.68;5.10;;;26.00;99.90;;;;;;5084485;28;20213;-73
2023/10/07 11:59:35;;;;;;;5.50;4.78;;;25.90;99.90;;;;;;5066105;28;20296;-73
2023/10/07 12:02:09;;;;;;;5.60;5.05;;;25.50;99.90;;;;;;5056120;28;20195;-71
2023/10/07 12:04:41;;;;;;;5.50;5.00;;;25.30;99.90;;;;;;5056814;28;20198;-72
2023/10/07 12:07:12;;;;;;;5.53;4.75;;;25.30;99.90;;;;;;5056714;28;20226;-70
2023/10/07 12:09:39;;;;;;;8.77;5.65;;;25.30;99.90;;;;;;5054005;28;20221;-73
2023/10/07 12:12:09;;;;;;;5.63;5.13;;;25.40;99.90;;;;;;5055694;28;20216;-72
2023/10/07 12:14:38;;;;;;;5.85;5.18;;;25.40;99.90;;;;;;5057209;28;20210;-74
2023/10/07 12:17:05;;;;;;;5.15;4.65;;;25.20;99.90;;;;;;5060584;28;20194;-72
2023/10/07 12:19:32;;;;;;;6.38;5.05;;;25.50;99.90;;;;;;5055558;28;20257;-72
2023/10/07 12:22:00;;;;;;;5.97;5.38;;;25.80;99.90;;;;;;5057996;28;20946;-72
2023/10/07 12:24:27;;;;;;;6.45;4.72;;;25.80;99.90;;;;;;5057697;28;20230;-72
2023/10/07 12:26:56;;;;;;;6.55;5.40;;;25.90;99.90;;;;;;5055020;28;20207;-73
2023/10/07 12:29:24;;;;;;;5.78;5.18;;;26.00;99.90;;;;;;5055532;28;20225;-72
2023/10/07 12:31:53;;;;;;;4.93;4.40;;;25.70;99.90;;;;;;5055636;28;20471;-72
2023/10/07 12:34:20;;;;;;;5.05;4.55;;;25.60;99.90;;;;;;5059427;28;20313;-72
2023/10/07 12:36:47;;;;;;;4.95;4.45;;;25.50;99.90;;;;;;5055759;28;20609;-75
2023/10/07 12:39:15;;;;;;;4.50;4.10;;;25.40;99.90;;;;;;5060715;28;20245;-72
2023/10/07 12:41:42;;;;;;;4.95;4.30;;;25.40;99.90;;;;;;5074018;28;20207;-75
2023/10/07 12:44:10;;;;;;;4.53;4.13;;;25.30;99.90;;;;;;5072968;28;20194;-73
2023/10/07 12:46:40;;;;;;;4.72;4.28;;;25.30;99.90;;;;;;5064168;28;20263;-72
2023/10/07 12:49:10;;;;;;;4.65;4.20;;;25.40;99.90;;;;;;5056274;28;20226;-71
2023/10/07 12:51:38;;;;;;;4.78;4.28;;;25.40;99.90;;;;;;5055334;28;20305;-71
2023/10/07 12:54:08;;;;;;;5.22;4.72;;;25.50;99.90;;;;;;5056827;28;20208;-71
2023/10/07 12:56:37;;;;;;;6.25;4.82;;;25.50;99.90;;;;;;5056905;28;20628;-73
2023/10/07 12:59:17;;;;;;;5.53;4.40;;;25.30;99.90;;;;;;5058802;28;20295;-73
2023/10/07 13:01:45;;;;;;;5.03;4.53;;;25.20;99.90;;;;;;5059556;28;20206;-72
2023/10/07 13:04:14;;;;;;;4.30;3.90;;;25.10;99.90;;;;;;5055995;28;20756;-73
2023/10/07 13:06:42;;;;;;;4.80;4.30;;;25.00;99.90;;;;;;5055047;28;20804;-72
2023/10/07 13:09:16;;;;;;;4.88;4.38;;;25.20;99.90;;;;;;5055139;28;20214;-72
2023/10/07 13:11:43;;;;;;;5.47;4.32;;;25.20;99.90;;;;;;5057834;28;20207;-73
2023/10/07 13:14:11;;;;;;;6.18;4.22;;;25.20;99.90;;;;;;5057760;28;20203;-74
2023/10/07 13:16:39;;;;;;;4.30;3.90;;;25.20;99.90;;;;;;5057212;28;20198;-72
2023/10/07 13:19:07;;;;;;;4.38;3.88;;;25.20;99.90;;;;;;5055689;28;20831;-71
2023/10/07 13:21:36;;;;;;;4.40;4.00;;;25.40;99.90;;;;;;5055102;28;20915;-73
2023/10/07 13:24:07;;;;;;;4.10;3.70;;;25.50;99.90;;;;;;5057047;28;20742;-71